Orbital elements of GAL E1
| Launched | 23 May 2016 |
| Flight ended | – |
| Launch site | Europe's Spaceport, Kourou, French Guiana |
| Owner | European Space Agency |
| NORAD ID | 41550 |
| Alternative names |
GALILEO 13 GSAT0210 SLOT A2 VS-15 GALILEO-FOC FM10 DANIELE |
| Date fetched |
Epoch osculation |
Inc. [°] |
Ecc. | RA asc node [hr] |
Arg Peri. [°] |
Mean anom [°] |
Mean motion [rev/day] |
Abs. mag |
| Date fetched |
Epoch osculation |
Inc. [°] |
Ecc. | RA asc node [hr] |
Arg Peri. [°] |
Mean anom [°] |
Mean motion [rev/day] |
Abs. mag |
| 2026 May 07 17:58 | 2026 May 04 15:30:58 | 55.1082 | 0.00024 | 14.8593 | 218.3947 | 141.6248 | 1.70474 | – |
| 2026 May 06 17:57 | 2026 May 04 15:30:58 | 55.1082 | 0.00024 | 14.8593 | 218.3947 | 141.6248 | 1.70474 | – |
| 2026 May 05 17:57 | 2026 May 04 15:30:58 | 55.1082 | 0.00024 | 14.8593 | 218.3947 | 141.6248 | 1.70474 | – |
| 2026 May 04 17:57 | 2026 Apr 30 12:58:09 | 55.1111 | 0.00023 | 14.8669 | 163.2996 | 141.6248 | 1.70474 | – |
| 2026 May 03 17:57 | 2026 Apr 30 12:58:09 | 55.1111 | 0.00023 | 14.8669 | 163.2996 | 141.6248 | 1.70474 | – |
| 2026 May 02 17:57 | 2026 Apr 30 12:58:09 | 55.1111 | 0.00023 | 14.8669 | 163.2996 | 141.6248 | 1.70474 | – |
| 2026 May 01 17:56 | 2026 Apr 30 12:58:09 | 55.1111 | 0.00023 | 14.8669 | 163.2996 | 141.6248 | 1.70474 | – |
| 2026 Apr 30 17:56 | 2026 Apr 29 08:48:47 | 55.1096 | 0.00030 | 14.8690 | 228.3755 | 141.6248 | 1.70474 | – |
| 2026 Apr 29 17:57 | 2026 Apr 29 08:48:47 | 55.1096 | 0.00030 | 14.8690 | 228.3755 | 141.6248 | 1.70474 | – |
| 2026 Apr 28 17:56 | 2026 Apr 25 06:16:01 | 55.1104 | 0.00028 | 14.8765 | 225.6811 | 141.6248 | 1.70474 | – |
| 2026 Apr 27 17:58 | 2026 Apr 25 06:16:01 | 55.1104 | 0.00028 | 14.8765 | 225.6811 | 141.6248 | 1.70474 | – |
| 2026 Apr 26 17:58 | 2026 Apr 25 06:16:01 | 55.1104 | 0.00028 | 14.8765 | 225.6811 | 141.6248 | 1.70474 | – |
| 2026 Apr 25 17:58 | 2026 Apr 25 06:16:01 | 55.1104 | 0.00028 | 14.8765 | 225.6811 | 141.6248 | 1.70474 | – |
| 2026 Apr 24 17:59 | 2026 Apr 21 03:43:17 | 55.1125 | 0.00027 | 14.8841 | 224.3398 | 141.6248 | 1.70474 | – |
| 2026 Apr 23 17:57 | 2026 Apr 21 03:43:17 | 55.1125 | 0.00027 | 14.8841 | 224.3398 | 141.6248 | 1.70474 | – |
| 2026 Apr 22 17:57 | 2026 Apr 21 03:43:17 | 55.1125 | 0.00027 | 14.8841 | 224.3398 | 141.6248 | 1.70474 | – |
| 2026 Apr 21 17:57 | 2026 Apr 19 09:29:14 | 55.1140 | 0.00026 | 14.8873 | 222.3480 | 141.6248 | 1.70474 | – |
| 2026 Apr 20 17:57 | 2026 Apr 19 09:29:14 | 55.1140 | 0.00026 | 14.8873 | 222.3480 | 141.6248 | 1.70474 | – |
| 2026 Apr 19 17:58 | 2026 Apr 19 09:29:14 | 55.1140 | 0.00026 | 14.8873 | 222.3480 | 141.6248 | 1.70474 | – |
| 2026 Apr 18 17:56 | 2026 Apr 14 16:51:44 | 55.1161 | 0.00024 | 14.8959 | 219.9994 | 141.6248 | 1.70474 | – |
| 2026 Apr 16 17:57 | 2026 Apr 14 16:51:44 | 55.1161 | 0.00024 | 14.8959 | 219.9994 | 141.6248 | 1.70474 | – |
| 2026 Apr 14 17:57 | 2026 Apr 12 22:37:42 | 55.1156 | 0.00023 | 14.8991 | 219.3872 | 141.6248 | 1.70474 | – |
| 2026 Apr 13 17:57 | 2026 Apr 12 08:33:02 | 55.1159 | 0.00023 | 14.9002 | 219.1085 | 141.6248 | 1.70474 | – |
| 2026 Apr 12 17:57 | 2026 Apr 12 08:33:02 | 55.1159 | 0.00023 | 14.9002 | 219.1085 | 141.6248 | 1.70474 | – |
| 2026 Apr 11 17:57 | 2026 Apr 09 10:09:39 | 55.1170 | 0.00022 | 14.9055 | 217.8956 | 141.6248 | 1.70474 | – |
| 2026 Apr 10 17:58 | 2026 Apr 09 10:09:39 | 55.1170 | 0.00022 | 14.9055 | 217.8956 | 141.6248 | 1.70474 | – |